createdAt,value
2022-08-17T00:00:49.523Z,19.74
2022-08-17T00:06:05.153Z,19.62
2022-08-17T00:11:13.791Z,19.57
2022-08-17T00:16:55.368Z,19.46
2022-08-17T00:22:32.988Z,19.42
2022-08-17T00:27:14.256Z,19.20
2022-08-17T00:33:14.624Z,19.08
2022-08-17T00:37:41.479Z,19.06
2022-08-17T00:42:49.969Z,19.10
2022-08-17T00:47:54.092Z,19.16
2022-08-17T00:52:58.818Z,19.09
2022-08-17T00:58:05.707Z,19.07
2022-08-17T01:03:22.651Z,19.10
2022-08-17T01:08:30.126Z,19.14
2022-08-17T01:13:41.109Z,19.22
2022-08-17T01:18:48.630Z,19.19
2022-08-17T01:23:52.523Z,19.14
2022-08-17T01:28:56.431Z,19.07
2022-08-17T01:34:05.872Z,18.94
2022-08-17T01:39:28.265Z,18.94
2022-08-17T01:44:32.385Z,18.92
2022-08-17T01:49:36.211Z,18.80
2022-08-17T01:54:44.346Z,18.76
2022-08-17T01:59:48.197Z,18.68
2022-08-17T02:04:51.725Z,18.63
2022-08-17T02:09:57.079Z,18.43
2022-08-17T02:15:01.876Z,18.22
2022-08-17T02:20:05.941Z,18.15
2022-08-17T02:25:11.918Z,18.22
2022-08-17T02:31:00.938Z,18.28
2022-08-17T02:35:39.797Z,18.36
2022-08-17T02:40:43.342Z,18.42
2022-08-17T02:45:49.538Z,18.43
2022-08-17T02:50:54.218Z,18.44
2022-08-17T02:55:57.946Z,18.38
2022-08-17T03:01:02.109Z,18.34
2022-08-17T03:06:07.867Z,18.27
2022-08-17T03:11:11.877Z,18.11
2022-08-17T03:16:15.630Z,18.05
2022-08-17T03:21:19.213Z,18.02
2022-08-17T03:26:22.560Z,17.99
2022-08-17T03:31:27.398Z,17.95
2022-08-17T03:36:36.084Z,17.82
2022-08-17T03:41:43.401Z,17.83
2022-08-17T03:47:10.570Z,17.93
2022-08-17T03:52:32.420Z,18.04
2022-08-17T03:57:36.868Z,18.13
2022-08-17T04:02:43.011Z,18.21
2022-08-17T04:07:46.787Z,18.26
2022-08-17T04:12:53.229Z,18.25
2022-08-17T04:17:57.122Z,18.30
2022-08-17T04:23:05.691Z,18.34
2022-08-17T04:28:15.754Z,18.41
2022-08-17T04:33:25.876Z,18.43
2022-08-17T04:38:32.607Z,18.57
2022-08-17T04:43:38.839Z,18.66
2022-08-17T04:48:46.119Z,18.85
2022-08-17T04:53:54.881Z,19.09
2022-08-17T04:59:02.927Z,19.38
2022-08-17T05:04:33.637Z,19.63
2022-08-17T05:09:37.733Z,19.85
2022-08-17T05:14:41.678Z,20.03
2022-08-17T05:19:50.000Z,20.25
2022-08-17T05:24:56.200Z,20.51
2022-08-17T05:30:01.665Z,20.74
2022-08-17T05:35:05.931Z,21.08
2022-08-17T05:40:10.822Z,21.97
2022-08-17T05:45:16.245Z,22.65
2022-08-17T05:50:56.485Z,23.02
2022-08-17T05:56:29.492Z,23.50
2022-08-17T06:01:44.635Z,23.79
2022-08-17T06:07:05.976Z,23.99
2022-08-17T06:13:01.951Z,24.21
2022-08-17T06:18:09.707Z,24.33
2022-08-17T06:23:27.229Z,24.43
2022-08-17T06:28:43.294Z,24.55
2022-08-17T06:33:48.110Z,24.70
2022-08-17T06:39:39.724Z,24.80
2022-08-17T06:45:17.910Z,24.95
2022-08-17T06:50:50.223Z,25.22
2022-08-17T06:56:06.719Z,25.51
2022-08-17T07:01:20.818Z,25.89
2022-08-17T07:06:33.292Z,26.64
2022-08-17T07:11:49.029Z,27.80
2022-08-17T07:16:57.084Z,29.16
2022-08-17T07:22:14.401Z,29.91
2022-08-17T07:27:46.603Z,30.30
2022-08-17T07:32:54.267Z,30.66
2022-08-17T07:38:25.584Z,31.09
2022-08-17T07:43:41.768Z,31.24
2022-08-17T07:48:55.520Z,31.52
2022-08-17T07:54:14.009Z,31.70
2022-08-17T07:59:24.066Z,31.88
2022-08-17T08:05:00.500Z,31.95
2022-08-17T08:10:10.671Z,32.08
2022-08-17T08:15:18.079Z,32.11
2022-08-17T08:20:52.043Z,32.22
2022-08-17T08:26:49.508Z,32.25
2022-08-17T08:31:59.938Z,32.29
2022-08-17T08:37:35.577Z,32.29
2022-08-17T08:42:58.438Z,32.41
2022-08-17T08:48:23.092Z,32.51
2022-08-17T08:53:43.855Z,32.21
2022-08-17T08:59:12.366Z,32.23
2022-08-17T09:04:55.879Z,32.29
2022-08-17T09:10:24.678Z,32.50
2022-08-17T09:15:35.207Z,32.66
2022-08-17T09:21:03.393Z,32.75
2022-08-17T09:26:26.690Z,32.80
2022-08-17T09:31:47.023Z,32.79
2022-08-17T09:37:14.738Z,32.70
2022-08-17T09:42:41.019Z,32.80
2022-08-17T09:47:56.634Z,32.86
2022-08-17T09:53:00.344Z,32.92
2022-08-17T09:58:15.348Z,32.97
2022-08-17T10:03:44.660Z,32.88
2022-08-17T10:09:12.468Z,32.96
2022-08-17T10:14:37.382Z,32.98
2022-08-17T10:20:16.907Z,32.92
2022-08-17T10:25:54.122Z,32.99
2022-08-17T10:31:33.187Z,33.21
2022-08-17T10:36:47.851Z,33.31
2022-08-17T10:41:57.755Z,33.45
2022-08-17T10:47:15.197Z,33.44
2022-08-17T10:52:21.097Z,33.32
2022-08-17T10:57:27.076Z,33.37
2022-08-17T11:02:41.014Z,33.53
2022-08-17T11:08:10.751Z,33.47
2022-08-17T11:13:30.624Z,33.44
2022-08-17T11:19:22.801Z,33.51
2022-08-17T11:24:40.536Z,33.58
2022-08-17T11:29:52.071Z,33.72
2022-08-17T11:35:32.158Z,33.80
2022-08-17T11:40:45.299Z,33.72
2022-08-17T11:46:21.763Z,33.60
2022-08-17T11:52:08.531Z,33.36
2022-08-17T11:57:28.260Z,33.16
2022-08-17T12:02:35.503Z,32.58
2022-08-17T12:07:52.613Z,32.11
2022-08-17T12:12:57.704Z,32.06
2022-08-17T12:18:05.201Z,32.33
2022-08-17T12:23:39.111Z,32.54
2022-08-17T12:28:47.405Z,32.42
2022-08-17T12:33:52.991Z,32.46
2022-08-17T12:39:13.797Z,32.18
2022-08-17T12:44:32.499Z,32.08
2022-08-17T12:49:44.012Z,31.95
2022-08-17T12:54:47.577Z,32.14
2022-08-17T13:00:10.283Z,32.33
2022-08-17T13:05:30.702Z,32.57
2022-08-17T13:10:36.410Z,32.78
2022-08-17T13:15:44.741Z,32.83
2022-08-17T13:20:55.970Z,32.74
2022-08-17T13:26:07.077Z,32.60
2022-08-17T13:31:52.214Z,32.70
2022-08-17T13:37:20.962Z,32.57
2022-08-17T13:42:52.660Z,32.49
2022-08-17T13:48:11.163Z,32.41
2022-08-17T13:53:36.867Z,32.45
2022-08-17T13:58:54.476Z,32.55
2022-08-17T14:04:01.443Z,32.60
2022-08-17T14:09:06.090Z,32.56
2022-08-17T14:14:10.315Z,32.55
2022-08-17T14:19:16.567Z,32.53
2022-08-17T14:24:35.805Z,32.56
2022-08-17T14:29:42.078Z,32.54
2022-08-17T14:34:46.703Z,32.49
2022-08-17T14:39:50.460Z,32.46
2022-08-17T14:44:55.619Z,32.39
2022-08-17T14:49:59.848Z,32.28
2022-08-17T14:55:03.863Z,32.21
2022-08-17T15:00:08.374Z,32.14
2022-08-17T15:05:11.807Z,32.08
2022-08-17T15:10:16.157Z,32.04
2022-08-17T15:15:19.586Z,31.94
2022-08-17T15:20:29.200Z,32.03
2022-08-17T15:25:33.796Z,32.11
2022-08-17T15:30:38.800Z,32.10
2022-08-17T15:35:43.243Z,32.02
2022-08-17T15:40:50.340Z,32.01
2022-08-17T15:46:00.667Z,32.10
2022-08-17T15:51:05.649Z,32.20
2022-08-17T15:56:10.001Z,32.16
2022-08-17T16:01:46.564Z,32.01
2022-08-17T16:06:43.398Z,31.77
2022-08-17T16:11:52.133Z,31.50
2022-08-17T16:16:59.933Z,31.12
2022-08-17T16:22:07.611Z,30.77
2022-08-17T16:27:13.330Z,30.51
2022-08-17T16:32:31.904Z,30.36
2022-08-17T16:37:37.613Z,30.21
2022-08-17T16:42:43.546Z,30.06
2022-08-17T16:47:50.304Z,29.86
2022-08-17T16:53:16.647Z,29.59
2022-08-17T16:58:23.512Z,29.31
2022-08-17T17:03:29.514Z,29.14
2022-08-17T17:08:52.568Z,28.99
2022-08-17T17:14:02.517Z,28.81
2022-08-17T17:19:37.336Z,28.60
2022-08-17T17:24:59.135Z,28.39
2022-08-17T17:30:13.729Z,28.19
2022-08-17T17:35:17.958Z,27.97
2022-08-17T17:40:32.634Z,27.75
2022-08-17T17:45:53.305Z,27.54
2022-08-17T17:52:02.807Z,27.35
2022-08-17T17:57:02.665Z,27.12
2022-08-17T18:02:45.624Z,26.92
2022-08-17T18:08:33.980Z,26.68
2022-08-17T18:13:59.849Z,26.47
2022-08-17T18:19:07.123Z,26.28
2022-08-17T18:24:14.513Z,26.06
2022-08-17T18:29:32.303Z,25.89
2022-08-17T18:34:48.327Z,25.74
2022-08-17T18:39:55.597Z,25.59
2022-08-17T18:44:59.647Z,25.40
2022-08-17T18:50:28.197Z,25.25
2022-08-17T18:55:32.991Z,25.18
2022-08-17T19:00:39.633Z,25.08
2022-08-17T19:05:46.584Z,24.96
2022-08-17T19:11:10.593Z,24.88
2022-08-17T19:16:32.744Z,24.83
2022-08-17T19:21:47.112Z,24.76
2022-08-17T19:26:57.738Z,24.70
2022-08-17T19:32:02.898Z,24.65
2022-08-17T19:37:37.009Z,24.57
2022-08-17T19:43:23.837Z,24.43
2022-08-17T19:48:46.261Z,24.32
2022-08-17T19:54:20.809Z,24.19
2022-08-17T19:59:42.514Z,24.12
2022-08-17T20:04:50.389Z,24.13
2022-08-17T20:10:07.070Z,24.12
2022-08-17T20:15:23.517Z,24.13
2022-08-17T20:21:00.008Z,24.14
2022-08-17T20:26:09.754Z,24.15
2022-08-17T20:31:50.913Z,24.07
2022-08-17T20:37:15.540Z,24.02
2022-08-17T20:42:22.935Z,23.95
2022-08-17T20:48:07.270Z,23.86
2022-08-17T20:53:15.034Z,23.80
2022-08-17T20:58:29.967Z,23.75
2022-08-17T21:03:49.130Z,23.70
2022-08-17T21:09:16.364Z,23.64
2022-08-17T21:14:59.587Z,23.55
2022-08-17T21:20:28.008Z,23.41
2022-08-17T21:25:42.705Z,23.28
2022-08-17T21:30:53.068Z,23.22
2022-08-17T21:36:00.517Z,23.12
2022-08-17T21:41:07.056Z,22.98
2022-08-17T21:46:32.717Z,22.79
2022-08-17T21:51:45.527Z,22.72
2022-08-17T21:56:50.584Z,22.68
2022-08-17T22:02:00.332Z,22.66
2022-08-17T22:07:13.966Z,22.59
2022-08-17T22:12:24.851Z,22.49
2022-08-17T22:17:37.364Z,22.31
2022-08-17T22:23:06.842Z,22.11
2022-08-17T22:28:13.634Z,22.09
2022-08-17T22:33:42.559Z,22.05
2022-08-17T22:38:48.393Z,21.97
2022-08-17T22:43:54.357Z,21.89
2022-08-17T22:49:00.447Z,21.81
2022-08-17T22:54:36.944Z,21.76
2022-08-17T22:59:54.516Z,21.73
2022-08-17T23:05:14.082Z,21.70
2022-08-17T23:10:20.130Z,21.69
2022-08-17T23:15:27.024Z,21.70
2022-08-17T23:20:34.640Z,21.66
2022-08-17T23:25:39.433Z,21.41
2022-08-17T23:30:46.410Z,21.32
2022-08-17T23:35:55.099Z,21.29
2022-08-17T23:41:05.131Z,21.30
2022-08-17T23:46:09.979Z,21.21
2022-08-17T23:51:22.034Z,21.13
2022-08-17T23:56:26.979Z,21.10
